Montopolis, Texas
Current Conditions -  °F | °C
As of 9:53 PM on Wednesday 22 Oct 2014 (Local Time) from KAUS Reporting Station
Broken Clouds Broken Clouds  
Wind Chill: 68°   Ceiling: 20000
Heat Index: 68°   Visibility: 10mi
Dew Point: 61°   Wind: 0mph
Humidity: 78%   Direction: NA
Pressure: 30.09"   Gusts: NA
Location:  30.2284°N, 97.7133°W
Report Text: KAUS 230253Z 00000KT 10SM BKN200 BKN250 20/16 A3009 RMK AO2 SLP182 T02000161 51014
Loading
Personal Weather Stations






























Interactive Weather Map
Tropical Storm Tracking
New forecast layout! Learn more

10-Day Weather Forecast

Advertisements
Track Severe Weather on mobile